createdAt,value
2022-10-25T00:01:51.529Z,76.98
2022-10-25T00:16:53.121Z,77.77
2022-10-25T00:31:54.565Z,82.35
2022-10-25T00:46:56.007Z,86.66
2022-10-25T01:01:57.714Z,88.71
2022-10-25T01:17:02.282Z,86.72
2022-10-25T01:32:09.081Z,90.75
2022-10-25T01:47:18.616Z,89.11
2022-10-25T02:02:32.908Z,90.44
2022-10-25T02:17:37.129Z,91.01
2022-10-25T02:32:38.657Z,92.02
2022-10-25T02:47:40.166Z,94.17
2022-10-25T03:02:41.623Z,96.24
2022-10-25T03:17:43.055Z,93.04
2022-10-25T03:32:44.474Z,92.72
2022-10-25T03:47:46.597Z,95.70
2022-10-25T04:02:48.348Z,95.74
2022-10-25T04:17:50.542Z,100.00
2022-10-25T04:32:52.251Z,99.38
2022-10-25T04:47:53.897Z,97.54
2022-10-25T05:02:55.698Z,95.97
2022-10-25T05:17:58.015Z,97.33
2022-10-25T05:33:02.743Z,89.98
2022-10-25T05:48:06.251Z,82.01
2022-10-25T06:03:07.732Z,71.07
2022-10-25T06:18:09.164Z,73.46
2022-10-25T06:33:10.606Z,65.84
2022-10-25T06:48:12.062Z,59.22
2022-10-25T07:03:13.602Z,62.50
2022-10-25T07:18:15.342Z,64.86
2022-10-25T07:33:18.037Z,55.12
2022-10-25T07:48:19.897Z,58.35
2022-10-25T08:03:21.395Z,53.42
2022-10-25T08:18:23.644Z,53.68
2022-10-25T08:33:25.142Z,45.01
2022-10-25T08:48:46.827Z,48.76
2022-10-25T09:03:48.303Z,43.25
2022-10-25T09:18:51.000Z,44.67
2022-10-25T09:34:04.446Z,45.49
2022-10-25T09:49:13.738Z,40.81
2022-10-25T10:04:27.498Z,35.45
2022-10-25T10:19:30.107Z,40.07
2022-10-25T10:34:51.780Z,41.25
2022-10-25T10:49:53.391Z,38.23
2022-10-25T11:04:55.666Z,38.11
2022-10-25T11:20:08.511Z,37.94
2022-10-25T11:35:30.209Z,37.51
2022-10-25T11:50:43.261Z,37.79
2022-10-25T12:05:44.766Z,35.32
2022-10-25T12:20:47.819Z,34.07
2022-10-25T12:35:50.802Z,35.45
2022-10-25T12:50:52.206Z,34.65
2022-10-25T13:06:12.235Z,35.60
2022-10-25T13:21:15.371Z,37.27
2022-10-25T13:36:16.837Z,40.92
2022-10-25T13:51:18.523Z,45.76
2022-10-25T14:06:23.043Z,46.41
2022-10-25T14:21:25.969Z,46.33
2022-10-25T14:36:27.462Z,47.62
2022-10-25T14:51:33.979Z,47.01
2022-10-25T15:06:35.507Z,50.82
2022-10-25T15:21:43.002Z,49.08
2022-10-25T15:36:44.474Z,46.97
2022-10-25T15:51:46.232Z,51.94
2022-10-25T16:06:48.252Z,45.37
2022-10-25T16:21:49.762Z,43.55
2022-10-25T16:36:52.615Z,43.02
2022-10-25T16:51:54.090Z,44.13
2022-10-25T17:06:55.523Z,41.53
2022-10-25T17:21:57.009Z,42.94
2022-10-25T17:37:00.237Z,42.22
2022-10-25T17:52:02.791Z,41.80
2022-10-25T18:07:04.237Z,42.96
2022-10-25T18:22:05.702Z,43.21
2022-10-25T18:37:07.219Z,47.69
2022-10-25T18:52:09.217Z,48.32
2022-10-25T19:07:10.646Z,48.85
2022-10-25T19:22:12.104Z,48.32
2022-10-25T19:37:13.590Z,48.34
2022-10-25T19:52:15.075Z,51.02
2022-10-25T20:07:16.860Z,52.44
2022-10-25T20:22:18.325Z,52.55
2022-10-25T20:37:19.842Z,53.13
2022-10-25T20:52:21.797Z,55.49
2022-10-25T21:07:23.294Z,57.40
2022-10-25T21:22:24.861Z,59.94
2022-10-25T21:37:26.712Z,61.72
2022-10-25T21:52:28.158Z,62.91
2022-10-25T22:16:12.852Z,65.02
2022-10-25T22:31:15.922Z,65.38
2022-10-25T22:46:22.143Z,67.65
2022-10-25T23:01:25.067Z,65.63
2022-10-25T23:16:26.785Z,64.48
2022-10-25T23:31:28.866Z,63.32
2022-10-25T23:46:30.340Z,63.51
